Taylors, SC (29687)

10:02 PM EST on December 10, 2016 (GMT -0500)
Edward's Forest | | Change Station

Elev 1000 ft 34.93 °N, 82.33 °W | Updated 4 seconds ago

Clear
Clear
27.8 °F
Feels Like 28 °F
N
0.0
Wind Variable Wind from SE
Gusts 0.0 mph

Today
High -- | Low -- °F
--% Chance of Precip.
Yesterday
High -- | Low -- °F
Precip. -- in
Pressure 30.48 in
Visibility 10.0 miles
Clouds Clear
Windchill 28 °F
Dew Point 23 °F
Humidity 83%
Rainfall 0.00 in
Snow Depth Not available.
7:26 AM 5:18 PM
Waxing Gibbous, 88% visible
METAR KGSP 110253Z 00000KT 10SM CLR M01/M08 A3046 RMK AO2 SLP320 T10111078 53002
Pressure 30.48 in
Visibility 10.0 miles
Clouds Clear
Windchill 28 °F
Dew Point 23 °F
Humidity 83%
Rainfall 0.00 in
Snow Depth Not available.
7:26 AM 5:18 PM
Waxing Gibbous, 88% visible
METAR KGSP 110253Z 00000KT 10SM CLR M01/M08 A3046 RMK AO2 SLP320 T10111078 53002

10-Day Weather Forecast

Almanac

Astronomy

Dec. 10, 2016 Rise Set
Actual Time
Civil Twilight
Nautical Twilight
Astronomical Twilight
Moon
Length of Visible Light
Length of Day
Tomorrow will be .
, % of the Moon is Illuminated

Today's Extremes

State Highs State Lows

Community

WunderPhotos

Upload Photos

1,956,692 photos uploaded!

WunderBlog® & News

Nearby

Air Quality

  Air Quality AQ Index Pollutant
Not available.

Snow Depth

Station Depth Elevation

Earthquake Activity

City Distance Mag. Time & Date
Minimum magnitude displayed is 2.5.

Coastal Water Temperatures

Place Temperature

Stations

Nearby Weather Stations

Station Location Temp. Windchill Dew Point Humidity Wind Precip. Elev Updated Type
                   

Watches & Warnings

There are currently no watches in effect.